createdAt,value
2023-05-27T00:00:46.411Z,45.22
2023-05-27T00:01:50.006Z,45.38
2023-05-27T00:02:53.031Z,45.25
2023-05-27T00:03:58.487Z,45.65
2023-05-27T00:05:01.484Z,45.43
2023-05-27T00:06:09.966Z,45.51
2023-05-27T00:07:13.648Z,45.48
2023-05-27T00:08:16.505Z,45.77
2023-05-27T00:09:20.293Z,45.72
2023-05-27T00:10:23.154Z,45.95
2023-05-27T00:11:27.712Z,45.76
2023-05-27T00:12:30.770Z,45.84
2023-05-27T00:13:34.812Z,45.65
2023-05-27T00:14:37.602Z,46.01
2023-05-27T00:15:43.456Z,45.67
2023-05-27T00:16:46.581Z,45.61
2023-05-27T00:17:51.213Z,45.65
2023-05-27T00:18:54.212Z,46.03
2023-05-27T00:20:05.727Z,45.73
2023-05-27T00:21:08.679Z,45.91
2023-05-27T00:22:12.539Z,45.47
2023-05-27T00:23:15.827Z,45.35
2023-05-27T00:24:19.687Z,45.73
2023-05-27T00:25:23.765Z,45.52
2023-05-27T00:26:27.291Z,45.71
2023-05-27T00:27:31.276Z,46.00
2023-05-27T00:28:34.040Z,46.29
2023-05-27T00:29:38.296Z,46.19
2023-05-27T00:30:41.269Z,46.36
2023-05-27T00:31:45.473Z,46.61
2023-05-27T00:32:48.648Z,46.75
2023-05-27T00:33:52.699Z,46.49
2023-05-27T00:34:56.481Z,46.76
2023-05-27T00:36:01.707Z,47.08
2023-05-27T00:37:06.868Z,47.21
2023-05-27T00:38:11.034Z,46.87
2023-05-27T00:39:13.707Z,46.80
2023-05-27T00:40:22.098Z,46.87
2023-05-27T00:41:24.979Z,47.11
2023-05-27T00:42:28.876Z,47.02
2023-05-27T00:43:32.199Z,46.91
2023-05-27T00:44:35.911Z,46.81
2023-05-27T00:45:38.789Z,46.59
2023-05-27T00:46:42.945Z,46.30
2023-05-27T00:47:46.233Z,46.40
2023-05-27T00:48:50.621Z,46.22
2023-05-27T00:49:54.365Z,46.10
2023-05-27T00:50:58.868Z,46.03
2023-05-27T00:52:03.000Z,45.81
2023-05-27T00:53:06.993Z,45.66
2023-05-27T00:54:11.995Z,45.66
2023-05-27T00:55:16.372Z,45.42
2023-05-27T00:56:19.219Z,45.14
2023-05-27T00:57:23.297Z,45.27
2023-05-27T00:58:26.022Z,45.19
2023-05-27T00:59:29.868Z,45.09
2023-05-27T01:00:33.037Z,44.99
2023-05-27T01:01:38.205Z,45.10
2023-05-27T01:02:42.313Z,44.78
2023-05-27T01:03:46.859Z,44.99
2023-05-27T01:04:50.171Z,44.90
2023-05-27T01:05:57.268Z,44.83
2023-05-27T01:07:10.109Z,45.11
2023-05-27T01:08:22.991Z,44.60
2023-05-27T01:09:32.857Z,44.86
2023-05-27T01:10:43.271Z,44.83
2023-05-27T01:11:52.738Z,45.24
2023-05-27T01:13:03.032Z,45.19
2023-05-27T01:14:10.674Z,44.88
2023-05-27T01:15:15.201Z,45.02
2023-05-27T01:16:19.823Z,45.10
2023-05-27T01:17:26.236Z,45.27
2023-05-27T01:18:31.364Z,45.63
2023-05-27T01:19:37.593Z,45.56
2023-05-27T01:20:45.123Z,45.43
2023-05-27T01:21:53.507Z,45.76
2023-05-27T01:23:00.585Z,46.20
2023-05-27T01:24:06.154Z,46.43
2023-05-27T01:25:09.601Z,46.26
2023-05-27T01:26:14.205Z,46.17
2023-05-27T01:27:16.912Z,46.57
2023-05-27T01:28:21.309Z,46.07
2023-05-27T01:29:24.806Z,46.37
2023-05-27T01:30:28.341Z,46.32
2023-05-27T01:31:37.465Z,46.36
2023-05-27T01:32:47.136Z,46.34
2023-05-27T01:33:56.793Z,46.59
2023-05-27T01:35:09.693Z,46.26
2023-05-27T01:36:20.282Z,46.43
2023-05-27T01:37:27.166Z,46.59
2023-05-27T01:38:35.590Z,46.67
2023-05-27T01:39:40.627Z,46.81
2023-05-27T01:40:45.515Z,46.72
2023-05-27T01:41:49.445Z,46.77
2023-05-27T01:42:53.470Z,46.88
2023-05-27T01:43:57.434Z,47.05
2023-05-27T01:45:02.190Z,47.20
2023-05-27T01:46:07.773Z,47.61
2023-05-27T01:47:12.251Z,47.60
2023-05-27T01:48:15.121Z,47.70
2023-05-27T01:49:19.183Z,47.37
2023-05-27T01:50:22.005Z,47.75
2023-05-27T01:51:26.285Z,47.39
2023-05-27T01:52:29.353Z,47.77
2023-05-27T01:53:35.327Z,47.70
2023-05-27T01:54:38.420Z,47.89
2023-05-27T01:55:42.654Z,48.16
2023-05-27T01:56:45.581Z,47.75
2023-05-27T01:57:50.723Z,47.74
2023-05-27T01:58:53.623Z,48.02
2023-05-27T01:59:58.030Z,47.75
2023-05-27T02:01:01.664Z,47.61
2023-05-27T02:02:05.688Z,47.77
2023-05-27T02:03:08.752Z,47.98
2023-05-27T02:04:12.684Z,47.63
2023-05-27T02:05:15.712Z,47.52
2023-05-27T02:06:19.533Z,47.57
2023-05-27T02:07:22.564Z,47.81
2023-05-27T02:08:26.626Z,47.50
2023-05-27T02:09:31.106Z,47.52
2023-05-27T02:10:34.923Z,47.51
2023-05-27T02:11:39.033Z,47.07
2023-05-27T02:12:43.020Z,46.94
2023-05-27T02:13:46.091Z,46.89
2023-05-27T02:14:50.439Z,47.06
2023-05-27T02:15:53.556Z,46.59
2023-05-27T02:16:59.455Z,46.88
2023-05-27T02:18:23.573Z,46.11
2023-05-27T02:19:27.323Z,46.89
2023-05-27T02:20:31.197Z,46.56
2023-05-27T02:21:35.400Z,46.22
2023-05-27T02:22:39.207Z,46.55
2023-05-27T02:23:42.260Z,46.66
2023-05-27T02:24:47.864Z,46.44
2023-05-27T02:25:51.829Z,46.37
2023-05-27T02:26:55.846Z,46.45
2023-05-27T02:27:58.929Z,46.23
2023-05-27T02:29:03.122Z,46.42
2023-05-27T02:30:07.123Z,46.68
2023-05-27T02:31:11.230Z,46.42
2023-05-27T02:32:14.486Z,46.31
2023-05-27T02:33:20.832Z,46.19
2023-05-27T02:34:24.005Z,46.20
2023-05-27T02:35:28.006Z,46.23
2023-05-27T02:36:30.656Z,46.57
2023-05-27T02:37:34.660Z,46.46
2023-05-27T02:38:37.330Z,46.09
2023-05-27T02:39:41.885Z,45.84
2023-05-27T02:40:46.625Z,45.86
2023-05-27T02:41:51.885Z,46.22
2023-05-27T02:42:54.669Z,45.89
2023-05-27T02:43:58.656Z,46.64
2023-05-27T02:45:01.861Z,46.25
2023-05-27T02:46:08.644Z,46.56
2023-05-27T02:47:12.210Z,46.67
2023-05-27T02:48:17.309Z,46.36
2023-05-27T02:49:20.940Z,46.35
2023-05-27T02:50:25.378Z,46.27
2023-05-27T02:51:30.061Z,46.60
2023-05-27T02:52:33.987Z,46.97
2023-05-27T02:53:36.761Z,47.07
2023-05-27T02:54:40.813Z,46.63
2023-05-27T02:55:43.564Z,46.95
2023-05-27T02:56:49.022Z,47.09
2023-05-27T02:57:51.682Z,46.81
2023-05-27T02:58:55.764Z,46.80
2023-05-27T02:59:58.958Z,46.65
2023-05-27T03:01:03.221Z,47.02
2023-05-27T03:02:06.826Z,47.37
2023-05-27T03:03:10.903Z,46.95
2023-05-27T03:04:13.723Z,47.67
2023-05-27T03:05:17.677Z,47.37
2023-05-27T03:06:21.458Z,47.93
2023-05-27T03:07:25.345Z,47.74
2023-05-27T03:08:27.978Z,47.92
2023-05-27T03:09:31.939Z,48.08
2023-05-27T03:10:34.769Z,48.19
2023-05-27T03:11:39.165Z,48.13
2023-05-27T03:12:43.423Z,48.35
2023-05-27T03:13:47.276Z,48.29
2023-05-27T03:14:51.102Z,48.39
2023-05-27T03:15:56.106Z,47.97
2023-05-27T03:16:59.094Z,47.97
2023-05-27T03:18:03.458Z,48.16
2023-05-27T03:19:07.724Z,47.94
2023-05-27T03:20:12.827Z,48.34
2023-05-27T03:21:16.569Z,48.26
2023-05-27T03:22:22.158Z,48.00
2023-05-27T03:23:24.983Z,48.29
2023-05-27T03:24:29.033Z,48.51
2023-05-27T03:25:32.094Z,48.04
2023-05-27T03:26:38.063Z,48.42
2023-05-27T03:27:43.793Z,48.76
2023-05-27T03:28:51.638Z,48.80
2023-05-27T03:29:54.350Z,48.49
2023-05-27T03:30:58.300Z,48.68
2023-05-27T03:32:13.790Z,48.39
2023-05-27T03:33:19.563Z,48.15
2023-05-27T03:34:22.288Z,48.63
2023-05-27T03:35:26.358Z,48.36
2023-05-27T03:36:30.716Z,48.66
2023-05-27T03:37:33.567Z,48.46
2023-05-27T03:38:41.537Z,48.00
2023-05-27T03:39:45.065Z,48.50
2023-05-27T03:40:48.914Z,48.19
2023-05-27T03:41:52.363Z,48.46
2023-05-27T03:42:57.712Z,48.57
2023-05-27T03:44:00.679Z,48.12
2023-05-27T03:45:04.760Z,48.57
2023-05-27T03:46:10.483Z,48.52
2023-05-27T03:47:14.439Z,48.13
2023-05-27T03:48:17.629Z,47.82
2023-05-27T03:49:21.454Z,47.99
2023-05-27T03:50:24.360Z,48.09
2023-05-27T03:51:28.583Z,48.17
2023-05-27T03:52:31.492Z,47.98
2023-05-27T03:53:35.243Z,47.77
2023-05-27T03:54:39.964Z,47.81
2023-05-27T03:55:44.214Z,47.63
2023-05-27T03:56:47.153Z,47.78
2023-05-27T03:57:51.045Z,47.45
2023-05-27T03:58:55.243Z,47.79
2023-05-27T03:59:59.083Z,48.00
2023-05-27T04:01:03.066Z,47.88
2023-05-27T04:02:07.287Z,48.24
2023-05-27T04:03:11.580Z,48.42
2023-05-27T04:04:14.868Z,48.44
2023-05-27T04:05:19.490Z,48.62
2023-05-27T04:06:22.166Z,48.75
2023-05-27T04:07:28.196Z,48.89
2023-05-27T04:08:31.040Z,48.51
2023-05-27T04:09:34.797Z,48.73
2023-05-27T04:10:37.612Z,48.87
2023-05-27T04:11:41.526Z,49.02
2023-05-27T04:12:44.350Z,49.10
2023-05-27T04:13:50.081Z,49.47
2023-05-27T04:14:54.248Z,49.73
2023-05-27T04:15:58.920Z,49.95
2023-05-27T04:17:01.836Z,50.26
2023-05-27T04:18:05.853Z,50.71
2023-05-27T04:19:08.816Z,51.38
2023-05-27T04:20:16.325Z,51.14
2023-05-27T04:21:27.340Z,52.03
2023-05-27T04:22:33.580Z,52.12
2023-05-27T04:23:37.143Z,52.09
2023-05-27T04:24:42.220Z,52.40
2023-05-27T04:25:44.892Z,52.76
2023-05-27T04:26:50.491Z,53.16
2023-05-27T04:27:54.202Z,53.35
2023-05-27T04:29:00.861Z,53.33
2023-05-27T04:30:08.301Z,53.45
2023-05-27T04:31:14.043Z,53.61
2023-05-27T04:32:23.402Z,53.67
2023-05-27T04:33:27.754Z,54.83
2023-05-27T04:34:30.537Z,54.85
2023-05-27T04:35:34.886Z,54.69
2023-05-27T04:36:40.127Z,54.86
2023-05-27T04:37:49.125Z,55.23
2023-05-27T04:38:52.998Z,55.24
2023-05-27T04:39:58.539Z,55.05
2023-05-27T04:41:03.036Z,55.46
2023-05-27T04:42:24.693Z,55.60
2023-05-27T04:43:30.893Z,55.69
2023-05-27T04:44:35.141Z,56.31
2023-05-27T04:45:39.964Z,56.48
2023-05-27T04:46:44.770Z,56.83
2023-05-27T04:47:47.810Z,56.95
2023-05-27T04:48:52.388Z,57.11
2023-05-27T04:49:55.184Z,56.82
2023-05-27T04:50:59.422Z,57.08
2023-05-27T04:52:02.946Z,57.15
2023-05-27T04:53:07.675Z,57.58
2023-05-27T04:54:11.320Z,58.12
2023-05-27T04:55:34.651Z,57.97
2023-05-27T04:56:37.615Z,58.26
2023-05-27T04:57:44.390Z,57.85
2023-05-27T04:59:05.739Z,58.09
2023-05-27T05:00:24.568Z,57.74
2023-05-27T05:01:40.657Z,57.73
2023-05-27T05:03:02.320Z,58.24
2023-05-27T05:04:13.843Z,57.83
2023-05-27T05:05:22.745Z,58.04
2023-05-27T05:06:26.831Z,57.87
2023-05-27T05:07:31.124Z,57.78
2023-05-27T05:08:33.980Z,57.25
2023-05-27T05:09:38.542Z,57.09
2023-05-27T05:10:55.891Z,57.43
2023-05-27T05:11:58.939Z,56.80
2023-05-27T05:13:02.837Z,56.80
2023-05-27T05:14:05.826Z,56.57
2023-05-27T05:15:09.946Z,56.11
2023-05-27T05:16:12.935Z,56.48
2023-05-27T05:17:18.524Z,56.18
2023-05-27T05:18:22.534Z,55.95
2023-05-27T05:19:25.417Z,55.40
2023-05-27T05:20:29.433Z,55.06
2023-05-27T05:21:32.414Z,55.14
2023-05-27T05:22:36.515Z,55.65
2023-05-27T05:23:41.134Z,55.10
2023-05-27T05:24:45.920Z,54.87
2023-05-27T05:25:55.667Z,55.30
2023-05-27T05:26:59.560Z,55.36
2023-05-27T05:28:03.119Z,54.76
2023-05-27T05:29:07.070Z,54.83
2023-05-27T05:30:10.596Z,55.33
2023-05-27T05:31:15.525Z,55.49
2023-05-27T05:32:19.961Z,55.03
2023-05-27T05:33:24.377Z,55.59
2023-05-27T05:34:27.514Z,55.27
2023-05-27T05:35:31.581Z,55.67
2023-05-27T05:36:49.384Z,55.84
2023-05-27T05:37:52.385Z,55.95
2023-05-27T05:38:56.270Z,55.58
2023-05-27T05:39:59.041Z,55.97
2023-05-27T05:41:03.565Z,56.22
2023-05-27T05:42:08.986Z,55.85
2023-05-27T05:43:13.139Z,56.14
2023-05-27T05:44:17.343Z,56.30
2023-05-27T05:45:21.292Z,55.59
2023-05-27T05:46:24.619Z,55.34
2023-05-27T05:47:30.200Z,54.88
2023-05-27T05:48:41.318Z,55.35
2023-05-27T05:49:48.572Z,54.96
2023-05-27T05:50:51.920Z,54.66
2023-05-27T05:51:56.474Z,54.84
2023-05-27T05:52:59.456Z,54.70
2023-05-27T05:54:03.432Z,54.75
2023-05-27T05:55:09.156Z,54.89
2023-05-27T05:56:13.224Z,55.43
2023-05-27T05:57:17.183Z,55.17
2023-05-27T05:58:21.120Z,54.67
2023-05-27T05:59:25.907Z,54.24
2023-05-27T06:00:30.333Z,54.13
2023-05-27T06:01:52.789Z,53.63
2023-05-27T06:02:59.565Z,53.65
2023-05-27T06:04:29.404Z,53.27
2023-05-27T06:05:32.309Z,53.26
2023-05-27T06:06:36.585Z,52.80
2023-05-27T06:07:54.796Z,52.15
2023-05-27T06:08:58.888Z,52.33
2023-05-27T06:10:01.743Z,52.30
2023-05-27T06:11:13.927Z,52.38
2023-05-27T06:12:19.157Z,52.12
2023-05-27T06:13:24.985Z,51.88
2023-05-27T06:14:30.408Z,51.80
2023-05-27T06:15:36.701Z,51.78
2023-05-27T06:16:41.296Z,50.53
2023-05-27T06:17:48.715Z,50.93
2023-05-27T06:18:53.304Z,51.21
2023-05-27T06:19:57.601Z,50.94
2023-05-27T06:21:00.425Z,50.93
2023-05-27T06:22:07.543Z,50.75
2023-05-27T06:23:19.101Z,50.73
2023-05-27T06:24:22.910Z,50.41
2023-05-27T06:25:31.965Z,50.18
2023-05-27T06:26:40.961Z,49.86
2023-05-27T06:27:44.089Z,49.27
2023-05-27T06:29:51.739Z,49.61
2023-05-27T06:31:10.299Z,49.01
2023-05-27T06:32:15.123Z,49.06
2023-05-27T06:33:19.365Z,49.24
2023-05-27T06:34:23.541Z,49.52
2023-05-27T06:35:27.749Z,49.64
2023-05-27T06:36:30.844Z,49.22
2023-05-27T06:37:34.818Z,48.94
2023-05-27T06:38:38.174Z,49.10
2023-05-27T06:39:42.504Z,49.17
2023-05-27T06:40:45.463Z,49.13
2023-05-27T06:41:49.521Z,49.87
2023-05-27T06:43:13.761Z,49.71
2023-05-27T06:44:43.782Z,49.09
2023-05-27T06:47:25.206Z,49.11
2023-05-27T06:48:28.958Z,48.99
2023-05-27T06:49:34.824Z,49.27
2023-05-27T06:50:40.444Z,48.88
2023-05-27T06:51:44.710Z,48.71
2023-05-27T06:52:47.520Z,48.34
2023-05-27T06:54:14.648Z,48.79
2023-05-27T06:55:20.059Z,48.19
2023-05-27T06:56:42.107Z,48.05
2023-05-27T06:58:03.368Z,47.79
2023-05-27T06:59:33.808Z,47.49
2023-05-27T07:00:36.797Z,47.01
2023-05-27T07:01:58.723Z,46.38
2023-05-27T07:03:01.987Z,46.18
2023-05-27T07:04:06.539Z,45.95
2023-05-27T07:05:22.684Z,46.06
2023-05-27T07:06:25.758Z,46.53
2023-05-27T07:07:31.706Z,46.98
2023-05-27T07:08:34.796Z,47.00
2023-05-27T07:09:58.604Z,47.06
2023-05-27T07:11:02.138Z,46.84
2023-05-27T07:12:08.140Z,46.88
2023-05-27T07:13:22.694Z,46.74
2023-05-27T07:14:29.904Z,47.26
2023-05-27T07:15:33.097Z,47.42
2023-05-27T07:16:37.031Z,47.44
2023-05-27T07:17:40.649Z,46.86
2023-05-27T07:18:45.305Z,46.47
2023-05-27T07:19:49.256Z,46.47
2023-05-27T07:20:57.837Z,46.63
2023-05-27T07:22:00.926Z,47.10
2023-05-27T07:23:05.986Z,46.88
2023-05-27T07:24:12.127Z,47.06
2023-05-27T07:25:15.983Z,46.99
2023-05-27T07:26:18.836Z,46.93
2023-05-27T07:27:22.723Z,47.08
2023-05-27T07:28:33.779Z,47.01
2023-05-27T07:29:49.889Z,47.13
2023-05-27T07:31:14.811Z,47.23
2023-05-27T07:32:24.643Z,47.45
2023-05-27T07:33:28.439Z,47.74
2023-05-27T07:34:34.841Z,47.66
2023-05-27T07:35:37.848Z,48.31
2023-05-27T07:36:43.091Z,48.14
2023-05-27T07:37:46.158Z,48.16
2023-05-27T07:38:50.083Z,48.16
2023-05-27T07:39:53.034Z,48.20
2023-05-27T07:40:56.881Z,48.28
2023-05-27T07:41:59.933Z,48.78
2023-05-27T07:43:05.977Z,48.50
2023-05-27T07:44:10.363Z,48.72
2023-05-27T07:45:14.305Z,49.06
2023-05-27T07:46:17.281Z,49.00
2023-05-27T07:47:21.086Z,49.03
2023-05-27T07:48:24.159Z,49.04
2023-05-27T07:49:28.012Z,49.17
2023-05-27T07:50:44.552Z,48.72
2023-05-27T07:51:54.640Z,48.27
2023-05-27T07:52:57.562Z,48.64
2023-05-27T07:54:04.009Z,48.80
2023-05-27T07:55:07.550Z,48.56
2023-05-27T07:56:11.488Z,47.83
2023-05-27T07:57:15.999Z,47.53
2023-05-27T07:58:19.748Z,47.49
2023-05-27T07:59:36.308Z,47.50
2023-05-27T08:00:39.328Z,47.74
2023-05-27T08:01:43.945Z,47.11
2023-05-27T08:02:48.195Z,46.91
2023-05-27T08:03:52.893Z,46.88
2023-05-27T08:05:31.864Z,46.93
2023-05-27T08:06:42.175Z,47.35
2023-05-27T08:08:08.705Z,47.69
2023-05-27T08:09:31.008Z,47.69
2023-05-27T08:10:55.143Z,47.59
2023-05-27T08:12:18.030Z,48.19
2023-05-27T08:13:30.488Z,48.09
2023-05-27T08:14:49.633Z,47.78
2023-05-27T08:16:02.383Z,47.80
2023-05-27T08:17:19.674Z,48.34
2023-05-27T08:18:42.237Z,48.40
2023-05-27T08:19:53.677Z,48.35
2023-05-27T08:21:10.829Z,48.35
2023-05-27T08:22:47.303Z,48.54
2023-05-27T08:24:16.253Z,48.51
2023-05-27T08:25:35.320Z,48.83
2023-05-27T08:26:41.006Z,48.48
2023-05-27T08:27:58.584Z,48.39
2023-05-27T08:29:28.832Z,48.37
2023-05-27T08:30:51.060Z,48.72
2023-05-27T08:31:58.229Z,48.79
2023-05-27T08:33:02.324Z,48.57
2023-05-27T08:34:06.499Z,49.36
2023-05-27T08:35:13.684Z,49.25
2023-05-27T08:36:19.815Z,49.22
2023-05-27T08:37:24.624Z,49.43
2023-05-27T08:38:28.948Z,49.42
2023-05-27T08:39:45.865Z,49.61
2023-05-27T08:41:09.019Z,49.93
2023-05-27T08:42:13.101Z,49.84
2023-05-27T08:43:16.845Z,49.68
2023-05-27T08:44:24.465Z,49.76
2023-05-27T08:45:42.289Z,50.10
2023-05-27T08:46:46.873Z,49.80
2023-05-27T08:47:51.102Z,49.77
2023-05-27T08:48:57.630Z,49.91
2023-05-27T08:50:01.490Z,50.14
2023-05-27T08:51:07.564Z,50.17
2023-05-27T08:52:12.454Z,50.37
2023-05-27T08:53:18.850Z,49.91
2023-05-27T08:54:23.012Z,49.84
2023-05-27T08:55:33.135Z,49.37
2023-05-27T08:56:37.661Z,49.56
2023-05-27T08:57:47.067Z,49.71
2023-05-27T08:58:51.172Z,49.63
2023-05-27T08:59:54.489Z,49.80
2023-05-27T09:00:58.759Z,49.44
2023-05-27T09:02:03.845Z,49.16
2023-05-27T09:03:08.264Z,49.33
2023-05-27T09:04:11.979Z,49.20
2023-05-27T09:05:17.542Z,48.94
2023-05-27T09:06:20.264Z,49.08
2023-05-27T09:07:24.442Z,48.60
2023-05-27T09:08:38.363Z,48.89
2023-05-27T09:09:58.103Z,48.48
2023-05-27T09:11:03.461Z,48.38
2023-05-27T09:12:09.868Z,48.71
2023-05-27T09:13:13.184Z,48.47
2023-05-27T09:14:23.227Z,48.69
2023-05-27T09:15:27.822Z,48.44
2023-05-27T09:16:31.602Z,48.50
2023-05-27T09:17:34.466Z,48.25
2023-05-27T09:18:38.689Z,48.45
2023-05-27T09:19:41.508Z,48.44
2023-05-27T09:20:47.271Z,48.47
2023-05-27T09:21:52.660Z,48.31
2023-05-27T09:22:59.399Z,48.41
2023-05-27T09:24:03.414Z,48.10
2023-05-27T09:25:07.827Z,48.43
2023-05-27T09:26:14.636Z,48.76
2023-05-27T09:27:17.588Z,48.60
2023-05-27T09:28:24.603Z,48.77
2023-05-27T09:29:27.513Z,48.99
2023-05-27T09:30:31.612Z,48.79
2023-05-27T09:31:40.853Z,48.56
2023-05-27T09:32:44.630Z,48.60
2023-05-27T09:33:47.731Z,48.05
2023-05-27T09:34:51.538Z,48.14
2023-05-27T09:35:54.558Z,48.05
2023-05-27T09:36:58.859Z,47.97
2023-05-27T09:38:07.371Z,47.54
2023-05-27T09:39:12.039Z,47.52
2023-05-27T09:40:15.836Z,48.10
2023-05-27T09:41:26.520Z,47.40
2023-05-27T09:42:39.667Z,47.32
2023-05-27T09:43:45.070Z,47.10
2023-05-27T09:44:50.040Z,47.38
2023-05-27T09:45:56.888Z,47.46
2023-05-27T09:47:01.804Z,47.41
2023-05-27T09:48:06.241Z,47.50
2023-05-27T09:49:11.461Z,47.42
2023-05-27T09:50:16.784Z,47.55
2023-05-27T09:51:20.916Z,47.71
2023-05-27T09:52:26.708Z,47.76
2023-05-27T09:53:31.785Z,47.16
2023-05-27T09:54:34.825Z,47.11
2023-05-27T09:55:38.687Z,47.46
2023-05-27T09:56:43.098Z,47.21
2023-05-27T09:57:47.202Z,47.42
2023-05-27T09:58:50.194Z,47.49
2023-05-27T09:59:54.904Z,47.33
2023-05-27T10:00:58.953Z,47.56
2023-05-27T10:02:04.872Z,47.35
2023-05-27T10:03:11.937Z,47.29
2023-05-27T10:04:16.745Z,47.00
2023-05-27T10:05:23.206Z,46.69
2023-05-27T10:06:27.609Z,47.29
2023-05-27T10:07:35.145Z,46.83
2023-05-27T10:08:57.048Z,47.10
2023-05-27T10:10:02.605Z,47.26
2023-05-27T10:11:09.852Z,46.66
2023-05-27T10:12:15.859Z,46.93
2023-05-27T10:13:22.289Z,46.91
2023-05-27T10:14:25.216Z,46.68
2023-05-27T10:15:32.451Z,47.03
2023-05-27T10:16:36.896Z,47.12
2023-05-27T10:17:45.388Z,46.91
2023-05-27T10:18:53.700Z,46.87
2023-05-27T10:19:59.467Z,47.25
2023-05-27T10:21:07.359Z,46.95
2023-05-27T10:22:11.797Z,47.34
2023-05-27T10:23:17.072Z,47.26
2023-05-27T10:24:21.336Z,47.35
2023-05-27T10:25:24.735Z,47.38
2023-05-27T10:26:35.539Z,47.53
2023-05-27T10:27:45.904Z,47.55
2023-05-27T10:28:50.253Z,47.81
2023-05-27T10:30:00.283Z,47.76
2023-05-27T10:31:10.050Z,47.64
2023-05-27T10:32:13.125Z,47.80
2023-05-27T10:33:17.253Z,47.70
2023-05-27T10:34:21.010Z,47.22
2023-05-27T10:35:29.009Z,47.38
2023-05-27T10:36:33.923Z,47.25
2023-05-27T10:37:38.741Z,46.88
2023-05-27T10:38:44.864Z,46.61
2023-05-27T10:39:55.353Z,46.62
2023-05-27T10:41:03.340Z,46.32
2023-05-27T10:42:07.134Z,46.14
2023-05-27T10:43:19.746Z,45.85
2023-05-27T10:44:30.627Z,45.45
2023-05-27T10:45:34.597Z,45.17
2023-05-27T10:46:43.073Z,44.74
2023-05-27T10:47:49.135Z,44.78
2023-05-27T10:48:52.015Z,44.83
2023-05-27T10:49:56.650Z,44.16
2023-05-27T10:51:00.207Z,44.12
2023-05-27T10:52:11.816Z,43.86
2023-05-27T10:53:15.471Z,43.20
2023-05-27T10:55:25.114Z,42.73
2023-05-27T10:56:28.920Z,42.48
2023-05-27T10:57:32.426Z,42.41
2023-05-27T10:58:38.111Z,41.89
2023-05-27T10:59:46.953Z,41.97
2023-05-27T11:00:52.968Z,42.15
2023-05-27T11:01:55.944Z,41.51
2023-05-27T11:03:00.132Z,41.45
2023-05-27T11:04:02.921Z,41.44
2023-05-27T11:05:13.799Z,40.93
2023-05-27T11:06:17.919Z,40.78
2023-05-27T11:07:22.400Z,40.25
2023-05-27T11:08:25.227Z,40.47
2023-05-27T11:09:29.606Z,39.84
2023-05-27T11:10:32.207Z,40.16
2023-05-27T11:11:38.048Z,39.92
2023-05-27T11:12:46.736Z,39.59
2023-05-27T11:13:52.154Z,39.58
2023-05-27T11:14:56.649Z,39.42
2023-05-27T11:16:01.660Z,39.03
2023-05-27T11:17:04.632Z,38.89
2023-05-27T11:18:10.120Z,38.72
2023-05-27T11:19:13.319Z,39.28
2023-05-27T11:20:17.692Z,38.95
2023-05-27T11:21:22.181Z,39.06
2023-05-27T11:22:25.152Z,39.17
2023-05-27T11:23:37.055Z,39.11
2023-05-27T11:24:40.130Z,38.69
2023-05-27T11:25:45.669Z,38.90
2023-05-27T11:26:50.836Z,38.93
2023-05-27T11:27:54.411Z,38.49
2023-05-27T11:29:01.954Z,38.94
2023-05-27T11:30:11.302Z,38.86
2023-05-27T11:31:15.590Z,38.80
2023-05-27T11:32:18.855Z,38.42
2023-05-27T11:33:36.896Z,37.95
2023-05-27T11:34:41.113Z,38.38
2023-05-27T11:35:44.996Z,38.57
2023-05-27T11:36:50.100Z,38.08
2023-05-27T11:37:54.598Z,38.46
2023-05-27T11:38:59.010Z,38.69
2023-05-27T11:40:02.963Z,38.17
2023-05-27T11:41:09.079Z,38.16
2023-05-27T11:42:13.429Z,38.32
2023-05-27T11:43:19.436Z,38.49
2023-05-27T11:44:27.050Z,38.71
2023-05-27T11:45:32.519Z,38.09
2023-05-27T11:46:37.415Z,38.29
2023-05-27T11:47:43.033Z,38.67
2023-05-27T11:48:49.125Z,38.40
2023-05-27T11:49:53.282Z,38.08
2023-05-27T11:50:57.336Z,37.56
2023-05-27T11:52:01.730Z,37.57
2023-05-27T11:53:05.446Z,37.66
2023-05-27T11:54:09.458Z,37.81
2023-05-27T11:55:16.030Z,37.29
2023-05-27T11:56:19.908Z,37.47
2023-05-27T11:57:23.152Z,37.13
2023-05-27T11:58:26.995Z,37.01
2023-05-27T11:59:31.578Z,37.01
2023-05-27T12:00:35.400Z,37.30
2023-05-27T12:01:38.271Z,37.27
2023-05-27T12:02:42.902Z,37.07
2023-05-27T12:03:48.533Z,37.24
2023-05-27T12:04:51.314Z,37.16
2023-05-27T12:05:55.558Z,37.27
2023-05-27T12:07:03.403Z,37.52
2023-05-27T12:08:12.756Z,36.86
2023-05-27T12:09:16.479Z,37.03
2023-05-27T12:10:20.268Z,37.04
2023-05-27T12:11:23.356Z,36.88
2023-05-27T12:12:27.585Z,36.35
2023-05-27T12:13:32.884Z,36.25
2023-05-27T12:14:38.450Z,36.42
2023-05-27T12:15:41.636Z,36.68
2023-05-27T12:16:45.842Z,36.54
2023-05-27T12:17:48.539Z,36.13
2023-05-27T12:18:52.656Z,36.45
2023-05-27T12:19:55.370Z,35.98
2023-05-27T12:20:59.326Z,35.66
2023-05-27T12:22:02.404Z,36.06
2023-05-27T12:23:06.466Z,36.17
2023-05-27T12:24:09.382Z,35.67
2023-05-27T12:25:13.441Z,35.44
2023-05-27T12:26:16.831Z,35.86
2023-05-27T12:27:21.694Z,34.85
2023-05-27T12:28:24.626Z,34.88
2023-05-27T12:29:29.658Z,34.90
2023-05-27T12:30:33.870Z,34.80
2023-05-27T12:31:37.863Z,34.57
2023-05-27T12:32:41.034Z,34.61
2023-05-27T12:33:45.517Z,34.69
2023-05-27T12:34:48.379Z,34.12
2023-05-27T12:35:52.918Z,34.19
2023-05-27T12:36:55.717Z,33.82
2023-05-27T12:37:59.677Z,33.90
2023-05-27T12:39:02.337Z,33.62
2023-05-27T12:40:07.222Z,33.86
2023-05-27T12:41:10.142Z,33.67
2023-05-27T12:42:14.113Z,33.48
2023-05-27T12:43:16.991Z,33.37
2023-05-27T12:44:21.008Z,33.83
2023-05-27T12:45:25.477Z,33.89
2023-05-27T12:46:30.915Z,33.34
2023-05-27T12:47:33.699Z,33.22
2023-05-27T12:48:37.672Z,33.06
2023-05-27T12:49:40.350Z,33.43
2023-05-27T12:50:44.408Z,33.49
2023-05-27T12:51:47.267Z,33.22
2023-05-27T12:52:52.732Z,32.96
2023-05-27T12:53:55.530Z,33.32
2023-05-27T12:54:59.470Z,33.42
2023-05-27T12:56:03.476Z,33.17
2023-05-27T12:57:06.997Z,33.51
2023-05-27T12:58:10.806Z,33.79
2023-05-27T12:59:13.635Z,33.56
2023-05-27T13:00:18.142Z,33.95
2023-05-27T13:01:22.073Z,34.03
2023-05-27T13:02:26.697Z,34.93
2023-05-27T13:03:31.283Z,34.48
2023-05-27T13:04:34.384Z,34.81
2023-05-27T13:05:38.044Z,34.39
2023-05-27T13:06:43.201Z,34.30
2023-05-27T13:07:57.721Z,34.46
2023-05-27T13:09:00.483Z,33.96
2023-05-27T13:10:05.676Z,34.46
2023-05-27T13:11:09.368Z,34.26
2023-05-27T13:12:12.336Z,33.70
2023-05-27T13:13:16.298Z,33.24
2023-05-27T13:14:19.216Z,33.01
2023-05-27T13:15:25.269Z,33.59
2023-05-27T13:16:28.774Z,33.57
2023-05-27T13:17:35.604Z,33.04
2023-05-27T13:18:46.241Z,33.59
2023-05-27T13:19:49.680Z,33.31
2023-05-27T13:20:57.125Z,32.83
2023-05-27T13:22:00.862Z,32.87
2023-05-27T13:23:07.027Z,32.55
2023-05-27T13:24:11.000Z,32.62
2023-05-27T13:25:14.213Z,32.33
2023-05-27T13:26:18.139Z,31.81
2023-05-27T13:27:21.048Z,32.05
2023-05-27T13:28:24.799Z,32.30
2023-05-27T13:29:27.728Z,32.46
2023-05-27T13:30:31.849Z,32.35
2023-05-27T13:31:34.708Z,32.54
2023-05-27T13:32:40.099Z,32.52
2023-05-27T13:33:44.448Z,32.09
2023-05-27T13:34:49.380Z,32.22
2023-05-27T13:35:53.807Z,32.31
2023-05-27T13:36:56.521Z,32.88
2023-05-27T13:38:01.860Z,32.57
2023-05-27T13:39:04.882Z,32.80
2023-05-27T13:40:09.728Z,32.23
2023-05-27T13:41:12.676Z,32.85
2023-05-27T13:42:16.809Z,33.15
2023-05-27T13:43:20.743Z,33.24
2023-05-27T13:44:24.178Z,33.55
2023-05-27T13:45:28.297Z,33.63
2023-05-27T13:46:31.716Z,34.16
2023-05-27T13:47:35.525Z,34.33
2023-05-27T13:48:40.977Z,34.72
2023-05-27T13:49:43.639Z,34.95
2023-05-27T13:50:47.850Z,34.79
2023-05-27T13:51:50.523Z,35.47
2023-05-27T13:52:54.411Z,35.36
2023-05-27T13:53:58.324Z,36.16
2023-05-27T13:55:01.095Z,36.47
2023-05-27T13:56:05.084Z,36.79
2023-05-27T13:57:09.154Z,36.83
2023-05-27T13:58:13.437Z,37.07
2023-05-27T13:59:16.468Z,37.19
2023-05-27T14:00:20.527Z,37.53
2023-05-27T14:01:23.510Z,37.83
2023-05-27T14:02:27.299Z,38.16
2023-05-27T14:03:30.179Z,38.28
2023-05-27T14:04:35.437Z,38.65
2023-05-27T14:05:39.585Z,38.84
2023-05-27T14:06:42.536Z,39.12
2023-05-27T14:07:47.705Z,39.32
2023-05-27T14:08:51.465Z,39.41
2023-05-27T14:09:56.051Z,39.62
2023-05-27T14:10:59.943Z,39.81
2023-05-27T14:12:04.044Z,39.38